sensor_id;sensor_type;location;lat;lon;timestamp;P1;durP1;ratioP1;P2;durP2;ratioP2
10142;SDS011;5112;54.088;13.446;2023-04-30T00:07:34;5.57;;;2.93;;
10142;SDS011;5112;54.088;13.446;2023-04-30T00:17:37;3.67;;;2.80;;
10142;SDS011;5112;54.088;13.446;2023-04-30T00:27:39;5.03;;;2.83;;
10142;SDS011;5112;54.088;13.446;2023-04-30T00:37:42;5.80;;;2.47;;
10142;SDS011;5112;54.088;13.446;2023-04-30T00:47:43;4.40;;;2.80;;
10142;SDS011;5112;54.088;13.446;2023-04-30T00:57:46;3.93;;;2.60;;
10142;SDS011;5112;54.088;13.446;2023-04-30T01:07:49;5.70;;;2.77;;
10142;SDS011;5112;54.088;13.446;2023-04-30T01:17:53;4.07;;;3.17;;
10142;SDS011;5112;54.088;13.446;2023-04-30T01:28:05;6.13;;;3.27;;
10142;SDS011;5112;54.088;13.446;2023-04-30T01:38:09;4.93;;;3.37;;
10142;SDS011;5112;54.088;13.446;2023-04-30T01:48:21;6.22;;;4.05;;
10142;SDS011;5112;54.088;13.446;2023-04-30T01:58:28;9.52;;;4.35;;
10142;SDS011;5112;54.088;13.446;2023-04-30T02:08:32;4.13;;;3.50;;
10142;SDS011;5112;54.088;13.446;2023-04-30T02:18:33;5.53;;;3.60;;
10142;SDS011;5112;54.088;13.446;2023-04-30T02:28:36;4.43;;;3.40;;
10142;SDS011;5112;54.088;13.446;2023-04-30T02:38:38;4.93;;;3.40;;
10142;SDS011;5112;54.088;13.446;2023-04-30T02:48:41;7.18;;;3.80;;
10142;SDS011;5112;54.088;13.446;2023-04-30T02:58:42;6.30;;;3.77;;
10142;SDS011;5112;54.088;13.446;2023-04-30T03:08:45;7.97;;;3.37;;
10142;SDS011;5112;54.088;13.446;2023-04-30T03:18:47;5.67;;;3.47;;
10142;SDS011;5112;54.088;13.446;2023-04-30T03:28:51;7.03;;;3.50;;
10142;SDS011;5112;54.088;13.446;2023-04-30T03:38:54;7.33;;;3.33;;
10142;SDS011;5112;54.088;13.446;2023-04-30T03:48:57;5.73;;;3.23;;
10142;SDS011;5112;54.088;13.446;2023-04-30T03:58:58;8.93;;;3.87;;
10142;SDS011;5112;54.088;13.446;2023-04-30T04:09:02;7.27;;;3.47;;
10142;SDS011;5112;54.088;13.446;2023-04-30T04:19:05;7.70;;;3.67;;
10142;SDS011;5112;54.088;13.446;2023-04-30T04:29:08;7.00;;;3.97;;
10142;SDS011;5112;54.088;13.446;2023-04-30T04:39:09;8.70;;;3.33;;
10142;SDS011;5112;54.088;13.446;2023-04-30T04:49:13;5.60;;;3.00;;
10142;SDS011;5112;54.088;13.446;2023-04-30T04:59:15;6.67;;;3.10;;
10142;SDS011;5112;54.088;13.446;2023-04-30T05:09:19;7.50;;;3.40;;
10142;SDS011;5112;54.088;13.446;2023-04-30T05:19:20;5.07;;;3.03;;
10142;SDS011;5112;54.088;13.446;2023-04-30T05:29:23;6.07;;;3.33;;
10142;SDS011;5112;54.088;13.446;2023-04-30T05:39:25;7.03;;;3.73;;
10142;SDS011;5112;54.088;13.446;2023-04-30T05:49:28;6.57;;;3.80;;
10142;SDS011;5112;54.088;13.446;2023-04-30T05:59:30;5.40;;;3.43;;
10142;SDS011;5112;54.088;13.446;2023-04-30T06:09:33;7.87;;;3.37;;
10142;SDS011;5112;54.088;13.446;2023-04-30T06:19:34;7.40;;;3.40;;
10142;SDS011;5112;54.088;13.446;2023-04-30T06:29:39;6.27;;;3.10;;
10142;SDS011;5112;54.088;13.446;2023-04-30T06:39:40;7.53;;;3.60;;
10142;SDS011;5112;54.088;13.446;2023-04-30T06:49:43;9.37;;;3.93;;
10142;SDS011;5112;54.088;13.446;2023-04-30T06:59:45;7.33;;;4.10;;
10142;SDS011;5112;54.088;13.446;2023-04-30T07:09:48;6.37;;;3.20;;
10142;SDS011;5112;54.088;13.446;2023-04-30T07:19:51;8.13;;;3.50;;
10142;SDS011;5112;54.088;13.446;2023-04-30T07:29:54;4.70;;;3.03;;
10142;SDS011;5112;54.088;13.446;2023-04-30T07:39:55;8.93;;;3.50;;
10142;SDS011;5112;54.088;13.446;2023-04-30T07:49:59;6.50;;;3.10;;
10142;SDS011;5112;54.088;13.446;2023-04-30T08:00:00;4.87;;;2.83;;
10142;SDS011;5112;54.088;13.446;2023-04-30T08:10:04;4.67;;;3.03;;
10142;SDS011;5112;54.088;13.446;2023-04-30T08:20:07;5.33;;;2.87;;
10142;SDS011;5112;54.088;13.446;2023-04-30T08:30:11;4.93;;;2.80;;
10142;SDS011;5112;54.088;13.446;2023-04-30T08:40:13;4.47;;;3.07;;
10142;SDS011;5112;54.088;13.446;2023-04-30T08:50:17;6.67;;;2.90;;
10142;SDS011;5112;54.088;13.446;2023-04-30T09:00:19;3.50;;;3.00;;
10142;SDS011;5112;54.088;13.446;2023-04-30T09:10:22;4.57;;;3.10;;
10142;SDS011;5112;54.088;13.446;2023-04-30T09:20:24;5.33;;;2.77;;
10142;SDS011;5112;54.088;13.446;2023-04-30T09:30:30;4.17;;;2.93;;
10142;SDS011;5112;54.088;13.446;2023-04-30T09:40:35;6.00;;;2.73;;
10142;SDS011;5112;54.088;13.446;2023-04-30T09:50:40;4.30;;;2.77;;
10142;SDS011;5112;54.088;13.446;2023-04-30T10:00:44;4.57;;;2.90;;
10142;SDS011;5112;54.088;13.446;2023-04-30T10:10:49;3.90;;;2.80;;
10142;SDS011;5112;54.088;13.446;2023-04-30T10:20:57;3.00;;;2.70;;
10142;SDS011;5112;54.088;13.446;2023-04-30T10:31:06;4.47;;;3.00;;
10142;SDS011;5112;54.088;13.446;2023-04-30T10:41:09;5.20;;;3.17;;
10142;SDS011;5112;54.088;13.446;2023-04-30T10:51:12;3.47;;;2.80;;
10142;SDS011;5112;54.088;13.446;2023-04-30T11:01:14;4.83;;;2.83;;
10142;SDS011;5112;54.088;13.446;2023-04-30T11:11:18;4.50;;;2.90;;
10142;SDS011;5112;54.088;13.446;2023-04-30T11:21:21;3.23;;;2.60;;
10142;SDS011;5112;54.088;13.446;2023-04-30T11:31:28;4.47;;;2.87;;
10142;SDS011;5112;54.088;13.446;2023-04-30T11:41:39;5.97;;;2.73;;
10142;SDS011;5112;54.088;13.446;2023-04-30T11:51:42;3.77;;;2.40;;
10142;SDS011;5112;54.088;13.446;2023-04-30T12:01:49;3.20;;;2.23;;
10142;SDS011;5112;54.088;13.446;2023-04-30T12:11:52;3.83;;;2.97;;
10142;SDS011;5112;54.088;13.446;2023-04-30T12:21:53;4.50;;;2.60;;
10142;SDS011;5112;54.088;13.446;2023-04-30T12:31:57;5.03;;;2.40;;
10142;SDS011;5112;54.088;13.446;2023-04-30T12:41:59;3.63;;;2.90;;
10142;SDS011;5112;54.088;13.446;2023-04-30T12:52:04;2.93;;;2.53;;
10142;SDS011;5112;54.088;13.446;2023-04-30T13:02:08;6.90;;;4.63;;
10142;SDS011;5112;54.088;13.446;2023-04-30T13:12:11;4.37;;;2.73;;
10142;SDS011;5112;54.088;13.446;2023-04-30T13:22:13;3.10;;;2.37;;
10142;SDS011;5112;54.088;13.446;2023-04-30T13:32:16;4.97;;;2.50;;
10142;SDS011;5112;54.088;13.446;2023-04-30T13:42:18;3.33;;;2.13;;
10142;SDS011;5112;54.088;13.446;2023-04-30T13:52:21;4.43;;;2.90;;
10142;SDS011;5112;54.088;13.446;2023-04-30T14:02:23;3.93;;;2.70;;
10142;SDS011;5112;54.088;13.446;2023-04-30T14:12:27;4.83;;;2.90;;
10142;SDS011;5112;54.088;13.446;2023-04-30T14:22:29;4.93;;;2.90;;
10142;SDS011;5112;54.088;13.446;2023-04-30T14:32:34;3.30;;;3.00;;
10142;SDS011;5112;54.088;13.446;2023-04-30T14:42:36;2.60;;;2.40;;
10142;SDS011;5112;54.088;13.446;2023-04-30T14:52:39;4.77;;;2.77;;
10142;SDS011;5112;54.088;13.446;2023-04-30T15:02:42;4.70;;;2.50;;
10142;SDS011;5112;54.088;13.446;2023-04-30T15:12:45;5.53;;;3.30;;
10142;SDS011;5112;54.088;13.446;2023-04-30T15:22:47;5.37;;;3.23;;
10142;SDS011;5112;54.088;13.446;2023-04-30T15:32:51;4.17;;;3.03;;
10142;SDS011;5112;54.088;13.446;2023-04-30T15:42:52;3.63;;;2.90;;
10142;SDS011;5112;54.088;13.446;2023-04-30T15:52:55;3.73;;;2.70;;
10142;SDS011;5112;54.088;13.446;2023-04-30T16:02:57;3.70;;;2.63;;
10142;SDS011;5112;54.088;13.446;2023-04-30T16:13:00;4.97;;;3.53;;
10142;SDS011;5112;54.088;13.446;2023-04-30T16:23:02;6.83;;;3.57;;
10142;SDS011;5112;54.088;13.446;2023-04-30T16:33:06;5.00;;;3.33;;
10142;SDS011;5112;54.088;13.446;2023-04-30T16:43:08;4.53;;;3.73;;
10142;SDS011;5112;54.088;13.446;2023-04-30T16:53:11;5.73;;;3.80;;
10142;SDS011;5112;54.088;13.446;2023-04-30T17:03:12;7.20;;;4.40;;
10142;SDS011;5112;54.088;13.446;2023-04-30T17:13:15;5.03;;;3.43;;
10142;SDS011;5112;54.088;13.446;2023-04-30T17:23:17;3.87;;;3.17;;
10142;SDS011;5112;54.088;13.446;2023-04-30T17:33:20;4.70;;;3.30;;
10142;SDS011;5112;54.088;13.446;2023-04-30T17:43:24;4.60;;;3.60;;
10142;SDS011;5112;54.088;13.446;2023-04-30T17:53:27;3.80;;;3.00;;
10142;SDS011;5112;54.088;13.446;2023-04-30T18:03:28;4.03;;;3.60;;
10142;SDS011;5112;54.088;13.446;2023-04-30T18:13:32;5.50;;;4.63;;
10142;SDS011;5112;54.088;13.446;2023-04-30T18:23:36;5.83;;;4.03;;
10142;SDS011;5112;54.088;13.446;2023-04-30T18:33:38;5.93;;;4.07;;
10142;SDS011;5112;54.088;13.446;2023-04-30T18:43:40;3.70;;;3.40;;
10142;SDS011;5112;54.088;13.446;2023-04-30T18:53:43;5.00;;;3.43;;
10142;SDS011;5112;54.088;13.446;2023-04-30T19:03:46;4.20;;;3.30;;
10142;SDS011;5112;54.088;13.446;2023-04-30T19:13:49;7.47;;;4.60;;
10142;SDS011;5112;54.088;13.446;2023-04-30T19:23:51;4.53;;;3.60;;
10142;SDS011;5112;54.088;13.446;2023-04-30T19:33:54;4.97;;;3.80;;
10142;SDS011;5112;54.088;13.446;2023-04-30T19:43:59;5.23;;;4.57;;
10142;SDS011;5112;54.088;13.446;2023-04-30T19:54:02;5.83;;;4.43;;
10142;SDS011;5112;54.088;13.446;2023-04-30T20:04:04;5.38;;;4.55;;
10142;SDS011;5112;54.088;13.446;2023-04-30T20:14:07;4.63;;;4.17;;
10142;SDS011;5112;54.088;13.446;2023-04-30T20:24:09;5.32;;;4.82;;
10142;SDS011;5112;54.088;13.446;2023-04-30T20:34:12;6.85;;;6.15;;
10142;SDS011;5112;54.088;13.446;2023-04-30T20:44:14;8.50;;;7.70;;
10142;SDS011;5112;54.088;13.446;2023-04-30T20:54:17;10.83;;;8.63;;
10142;SDS011;5112;54.088;13.446;2023-04-30T21:04:19;7.63;;;6.80;;
10142;SDS011;5112;54.088;13.446;2023-04-30T21:14:22;8.27;;;6.00;;
10142;SDS011;5112;54.088;13.446;2023-04-30T21:24:23;7.50;;;6.20;;
10142;SDS011;5112;54.088;13.446;2023-04-30T21:34:28;6.27;;;5.63;;
10142;SDS011;5112;54.088;13.446;2023-04-30T21:44:30;11.23;;;7.70;;
10142;SDS011;5112;54.088;13.446;2023-04-30T21:54:34;9.15;;;7.25;;
10142;SDS011;5112;54.088;13.446;2023-04-30T22:04:35;6.47;;;5.77;;
10142;SDS011;5112;54.088;13.446;2023-04-30T22:14:38;6.70;;;5.23;;
10142;SDS011;5112;54.088;13.446;2023-04-30T22:24:40;6.35;;;4.88;;
10142;SDS011;5112;54.088;13.446;2023-04-30T22:34:43;5.40;;;4.90;;
10142;SDS011;5112;54.088;13.446;2023-04-30T22:44:45;5.53;;;4.90;;
10142;SDS011;5112;54.088;13.446;2023-04-30T22:54:49;6.20;;;5.60;;
10142;SDS011;5112;54.088;13.446;2023-04-30T23:04:50;5.73;;;5.23;;
10142;SDS011;5112;54.088;13.446;2023-04-30T23:14:53;6.78;;;5.70;;
10142;SDS011;5112;54.088;13.446;2023-04-30T23:24:55;6.73;;;6.13;;
10142;SDS011;5112;54.088;13.446;2023-04-30T23:34:59;11.33;;;5.90;;
10142;SDS011;5112;54.088;13.446;2023-04-30T23:45:00;9.80;;;6.70;;
10142;SDS011;5112;54.088;13.446;2023-04-30T23:55:04;8.07;;;5.70;;
